Time;durP1;ratioP1;P1;durP2;ratioP2;P2;SDS_P1;SDS_P2;PMS_P1;PMS_P2;Temp;Humidity;BMP_temperature;BMP_pressure;BME280_temperature;BME280_humidity;BME280_pressure;Samples;Min_cycle;Max_cycle;Signal;HPM_P1;HPM_P2
2023/06/01 00:00:15;;;;;;;16.48;8.45;;;;;;;-144.85;100.00;61331.59;5094544;28;32494;-72
2023/06/01 00:02:45;;;;;;;16.85;8.95;;;;;;;-144.85;100.00;61331.59;5095836;28;32228;-72
2023/06/01 00:05:12;;;;;;;17.23;8.60;;;;;;;-144.85;100.00;61331.59;5096777;28;31937;-72
2023/06/01 00:07:39;;;;;;;17.50;8.30;;;;;;;-144.85;100.00;61331.59;5076648;28;31848;-72
2023/06/01 00:10:07;;;;;;;14.40;8.30;;;;;;;-144.85;100.00;61331.59;5081853;28;31224;-72
2023/06/01 00:12:34;;;;;;;13.63;8.57;;;;;;;-144.85;100.00;61331.59;5096958;28;32169;-72
2023/06/01 00:15:01;;;;;;;15.63;8.00;;;;;;;-144.85;100.00;61331.59;5076947;28;32429;-72
2023/06/01 00:17:30;;;;;;;15.98;8.57;;;;;;;-144.85;100.00;61331.59;5080088;28;31339;-72
2023/06/01 00:20:00;;;;;;;14.20;8.20;;;;;;;-144.85;100.00;61331.59;5102066;28;32534;-72
2023/06/01 00:22:34;;;;;;;15.77;8.50;;;;;;;-144.85;100.00;61331.59;5095254;28;33431;-72
2023/06/01 00:25:01;;;;;;;16.38;9.15;;;;;;;-144.85;100.00;61331.59;5068405;28;32035;-72
2023/06/01 00:27:28;;;;;;;16.33;9.27;;;;;;;-144.85;100.00;61331.59;5098428;28;31756;-72
2023/06/01 00:29:57;;;;;;;15.85;8.77;;;;;;;-144.85;100.00;61331.59;5099450;28;31108;-72
2023/06/01 00:32:24;;;;;;;17.42;9.05;;;;;;;-144.85;100.00;61331.59;5099365;28;31758;-72
2023/06/01 00:34:52;;;;;;;16.60;9.50;;;;;;;-144.85;100.00;61331.59;5066285;28;32791;-72
2023/06/01 00:37:20;;;;;;;17.17;9.05;;;;;;;-144.85;100.00;61331.59;5078925;28;32022;-72
2023/06/01 00:39:47;;;;;;;13.82;8.85;;;;;;;-144.85;100.00;61331.59;5066627;28;30534;-72
2023/06/01 00:42:14;;;;;;;13.90;8.20;;;;;;;-144.85;100.00;61331.59;5064568;28;32567;-72
2023/06/01 00:44:41;;;;;;;16.02;8.52;;;;;;;-144.85;100.00;61331.59;5078825;28;32092;-72
2023/06/01 00:47:08;;;;;;;14.48;9.02;;;;;;;-144.85;100.00;61331.59;5083841;28;30618;-72
2023/06/01 00:49:36;;;;;;;17.00;8.77;;;;;;;-144.85;100.00;61331.59;5054398;28;30690;-72
2023/06/01 00:52:03;;;;;;;17.83;8.07;;;;;;;-144.85;100.00;61331.59;5097536;28;32772;-72
2023/06/01 00:54:30;;;;;;;14.40;8.32;;;;;;;-144.85;100.00;61331.59;5080779;28;30801;-73
2023/06/01 00:56:57;;;;;;;16.60;8.10;;;;;;;-144.85;100.00;61331.59;5069740;28;31056;-72
2023/06/01 00:59:25;;;;;;;12.20;7.72;;;;;;;-144.85;100.00;61331.59;5098022;28;32828;-72
2023/06/01 01:01:52;;;;;;;13.73;7.85;;;;;;;-144.85;100.00;61331.59;5103725;28;33165;-72
2023/06/01 01:04:25;;;;;;;14.90;7.97;;;;;;;-144.85;100.00;61331.59;5102452;28;32065;-72
2023/06/01 01:07:20;;;;;;;15.85;7.70;;;;;;;-144.85;100.00;61331.59;5097298;28;30711;-72
2023/06/01 01:09:58;;;;;;;20.67;7.53;;;;;;;-144.85;100.00;61331.59;5083763;28;31606;-72
2023/06/01 01:12:44;;;;;;;15.15;7.65;;;;;;;-144.85;100.00;61331.59;5069595;28;32730;-72
2023/06/01 01:15:21;;;;;;;13.65;6.95;;;;;;;-144.85;100.00;61331.59;5096864;28;31039;-70
2023/06/01 01:17:54;;;;;;;15.23;7.82;;;;;;;-144.85;100.00;61331.59;5066003;28;32184;-70
2023/06/01 01:20:24;;;;;;;13.07;7.63;;;;;;;-144.85;100.00;61331.59;5065940;28;30762;-70
2023/06/01 01:23:16;;;;;;;14.68;8.02;;;;;;;-144.85;100.00;61331.59;5099157;28;33048;-72
2023/06/01 01:26:06;;;;;;;16.50;7.07;;;;;;;-144.85;100.00;61331.59;5084049;28;31342;-72
2023/06/01 01:28:48;;;;;;;13.88;6.90;;;;;;;-144.85;100.00;61331.59;5063198;28;30900;-70
2023/06/01 01:31:23;;;;;;;13.05;6.85;;;;;;;-144.85;100.00;61331.59;5069406;28;30530;-70
2023/06/01 01:33:57;;;;;;;13.00;7.25;;;;;;;-144.85;100.00;61331.59;5068868;28;33043;-70
2023/06/01 01:36:25;;;;;;;15.43;7.55;;;;;;;-144.85;100.00;61331.59;5072556;28;30964;-70
2023/06/01 01:38:53;;;;;;;13.05;6.97;;;;;;;-144.85;100.00;61331.59;5086645;28;31912;-70
2023/06/01 01:41:21;;;;;;;13.90;7.35;;;;;;;-144.85;100.00;61331.59;5063030;28;30486;-70
2023/06/01 01:43:49;;;;;;;13.77;7.28;;;;;;;-144.85;100.00;61331.59;5099302;28;32487;-70
2023/06/01 01:46:28;;;;;;;13.93;6.85;;;;;;;-144.85;100.00;61331.59;5078589;28;32552;-70
2023/06/01 01:49:17;;;;;;;13.98;7.20;;;;;;;-144.85;100.00;61331.59;5071320;28;32025;-71
2023/06/01 01:52:15;;;;;;;13.85;7.03;;;;;;;-144.85;100.00;61331.59;5048946;28;30581;-70
2023/06/01 01:54:45;;;;;;;12.43;7.05;;;;;;;-144.85;100.00;61331.59;5083689;28;31811;-72
2023/06/01 01:57:14;;;;;;;15.05;7.35;;;;;;;-144.85;100.00;61331.59;5056657;28;31405;-72
2023/06/01 01:59:46;;;;;;;16.35;7.75;;;;;;;-144.85;100.00;61331.59;5069181;28;30797;-71
2023/06/01 02:02:13;;;;;;;12.98;7.03;;;;;;;-144.85;100.00;61331.59;5102283;28;31921;-70
2023/06/01 02:04:42;;;;;;;13.90;7.65;;;;;;;-144.85;100.00;61331.59;5099054;28;31626;-71
2023/06/01 02:07:10;;;;;;;14.82;7.72;;;;;;;-144.85;100.00;61331.59;5081728;28;31461;-71
2023/06/01 02:09:39;;;;;;;14.18;7.72;;;;;;;-144.85;100.00;61331.59;5065468;28;32240;-71
2023/06/01 02:12:07;;;;;;;17.13;7.80;;;;;;;-144.85;100.00;61331.59;5082283;28;30403;-71
2023/06/01 02:14:35;;;;;;;14.70;7.68;;;;;;;-144.85;100.00;61331.59;5071096;28;31480;-71
2023/06/01 02:17:02;;;;;;;16.23;7.97;;;;;;;-144.85;100.00;61331.59;5097999;28;31900;-71
2023/06/01 02:19:30;;;;;;;14.07;7.93;;;;;;;-144.85;100.00;61331.59;5072349;28;32372;-71
2023/06/01 02:21:57;;;;;;;13.65;7.88;;;;;;;-144.85;100.00;61331.59;5095034;28;30710;-71
2023/06/01 02:24:24;;;;;;;15.38;8.20;;;;;;;-144.85;100.00;61331.59;5102309;28;33708;-71
2023/06/01 02:26:53;;;;;;;14.75;7.70;;;;;;;-144.85;100.00;61331.59;5106124;28;32157;-70
2023/06/01 02:29:24;;;;;;;14.10;8.32;;;;;;;-144.85;100.00;61331.59;5060486;28;31070;-71
2023/06/01 02:31:52;;;;;;;13.35;7.47;;;;;;;-144.85;100.00;61331.59;5094687;28;31229;-71
2023/06/01 02:34:20;;;;;;;15.68;8.45;;;;;;;-144.85;100.00;61331.59;5084416;28;32545;-71
2023/06/01 02:36:48;;;;;;;16.13;8.82;;;;;;;-144.85;100.00;61331.59;5079141;28;32476;-70
2023/06/01 02:39:16;;;;;;;15.80;8.48;;;;;;;-144.85;100.00;61331.59;5085022;28;31398;-71
2023/06/01 02:41:44;;;;;;;15.45;9.25;;;;;;;-144.85;100.00;61331.59;5078597;28;32219;-70
2023/06/01 02:44:11;;;;;;;16.10;9.20;;;;;;;-144.85;100.00;61331.59;5083365;28;32852;-70
2023/06/01 02:46:39;;;;;;;15.43;9.45;;;;;;;-144.85;100.00;61331.59;5068463;28;31387;-71
2023/06/01 02:49:06;;;;;;;14.40;9.48;;;;;;;-144.85;100.00;61331.59;5078828;28;30615;-71
2023/06/01 02:51:33;;;;;;;16.90;9.90;;;;;;;-144.85;100.00;61331.59;5098380;28;32528;-71
2023/06/01 02:54:07;;;;;;;16.27;9.93;;;;;;;-144.85;100.00;61331.59;5082057;28;32336;-70
2023/06/01 02:56:34;;;;;;;14.70;9.00;;;;;;;-144.85;100.00;61331.59;5085905;28;32687;-71
2023/06/01 02:59:07;;;;;;;14.75;9.00;;;;;;;-144.85;100.00;61331.59;5099414;28;32117;-71
2023/06/01 03:01:40;;;;;;;13.68;8.18;;;;;;;-144.85;100.00;61331.59;5051552;28;30605;-71
2023/06/01 03:04:08;;;;;;;15.90;8.70;;;;;;;-144.85;100.00;61331.59;5061770;28;31565;-71
2023/06/01 03:06:38;;;;;;;16.08;9.07;;;;;;;-144.85;100.00;61331.59;5095278;28;31833;-71
2023/06/01 03:09:25;;;;;;;14.20;8.30;;;;;;;-144.85;100.00;61331.59;5079521;28;33091;-71
2023/06/01 03:12:07;;;;;;;14.48;8.00;;;;;;;-144.85;100.00;61331.59;5069566;28;30684;-71
2023/06/01 03:14:36;;;;;;;12.48;8.70;;;;;;;-144.85;100.00;61331.59;5098073;28;32416;-72
2023/06/01 03:17:03;;;;;;;14.82;8.18;;;;;;;-144.85;100.00;61331.59;5065002;28;32174;-71
2023/06/01 03:19:30;;;;;;;16.67;8.00;;;;;;;-144.85;100.00;61331.59;5079413;28;30931;-70
2023/06/01 03:22:00;;;;;;;13.43;7.45;;;;;;;-144.85;100.00;61331.59;5065147;28;31593;-71
2023/06/01 03:24:28;;;;;;;13.80;7.80;;;;;;;-144.85;100.00;61331.59;5078479;28;31444;-70
2023/06/01 03:27:01;;;;;;;12.98;7.97;;;;;;;-144.85;100.00;61331.59;5068541;28;32367;-71
2023/06/01 03:29:31;;;;;;;15.98;8.32;;;;;;;-144.85;100.00;61331.59;5065557;28;32403;-71
2023/06/01 03:31:59;;;;;;;13.75;7.28;;;;;;;-144.85;100.00;61331.59;5064401;28;31023;-71
2023/06/01 03:34:32;;;;;;;12.75;7.13;;;;;;;-144.85;100.00;61331.59;5073416;28;31594;-71
2023/06/01 03:37:00;;;;;;;15.82;8.20;;;;;;;-144.85;100.00;61331.59;5100310;28;31236;-71
2023/06/01 03:39:27;;;;;;;16.00;7.88;;;;;;;-144.85;100.00;61331.59;5068967;28;32593;-73
2023/06/01 03:41:54;;;;;;;14.10;7.97;;;;;;;-144.85;100.00;61331.59;5084249;28;30641;-72
2023/06/01 03:44:21;;;;;;;12.27;8.20;;;;;;;-144.85;100.00;61331.59;5099295;28;33648;-72
2023/06/01 03:46:49;;;;;;;13.15;7.75;;;;;;;-144.85;100.00;61331.59;5082215;28;32814;-73
2023/06/01 03:49:16;;;;;;;13.93;8.60;;;;;;;-144.85;100.00;61331.59;5077558;28;31739;-73
2023/06/01 03:51:44;;;;;;;16.13;8.57;;;;;;;-144.85;100.00;61331.59;5082674;28;31896;-70
2023/06/01 03:54:12;;;;;;;15.18;8.40;;;;;;;-144.85;100.00;61331.59;5077407;28;30670;-70
2023/06/01 03:56:41;;;;;;;14.77;8.15;;;;;;;-144.85;100.00;61331.59;5080754;28;34182;-70
2023/06/01 03:59:10;;;;;;;14.63;8.50;;;;;;;-144.85;100.00;61331.59;5081081;28;29677;-70
2023/06/01 04:01:39;;;;;;;15.05;8.63;;;;;;;-144.85;100.00;61331.59;5080830;28;30627;-70
2023/06/01 04:04:08;;;;;;;16.08;8.80;;;;;;;-144.85;100.00;61331.59;5066504;28;31971;-70
2023/06/01 04:06:36;;;;;;;17.30;9.18;;;;;;;-144.85;100.00;61331.59;5065362;28;32522;-70
2023/06/01 04:09:09;;;;;;;17.48;8.93;;;;;;;-144.85;100.00;61331.59;5101477;28;32062;-70
2023/06/01 04:11:39;;;;;;;13.30;8.00;;;;;;;-144.85;100.00;61331.59;5066852;28;30568;-70
2023/06/01 04:14:07;;;;;;;16.35;8.82;;;;;;;-144.85;100.00;61331.59;5064286;28;32454;-70
2023/06/01 04:16:34;;;;;;;16.10;9.45;;;;;;;-144.85;100.00;61331.59;5099857;28;33031;-73
2023/06/01 04:19:01;;;;;;;15.35;8.80;;;;;;;-144.85;100.00;61331.59;5080809;28;32362;-70
2023/06/01 04:21:32;;;;;;;14.77;9.10;;;;;;;-144.85;100.00;61331.59;5068388;28;30677;-71
2023/06/01 04:23:59;;;;;;;14.70;8.75;;;;;;;-144.85;100.00;61331.59;5078445;28;31416;-71
2023/06/01 04:26:27;;;;;;;15.25;8.68;;;;;;;-144.85;100.00;61331.59;5066017;28;33055;-70
2023/06/01 04:28:56;;;;;;;17.40;9.10;;;;;;;-144.85;100.00;61331.59;5080425;28;31835;-71
2023/06/01 04:31:24;;;;;;;15.68;9.57;;;;;;;-144.85;100.00;61331.59;5100033;28;30880;-71
2023/06/01 04:33:52;;;;;;;14.50;9.15;;;;;;;-144.85;100.00;61331.59;5082755;28;31487;-71
2023/06/01 04:36:23;;;;;;;18.83;9.25;;;;;;;-144.85;100.00;61331.59;5080916;28;31415;-70
2023/06/01 04:38:54;;;;;;;15.02;9.38;;;;;;;-144.85;100.00;61331.59;5083623;28;32483;-71
2023/06/01 04:41:23;;;;;;;17.35;8.80;;;;;;;-144.85;100.00;61331.59;5080769;28;31085;-71
2023/06/01 04:43:52;;;;;;;14.27;9.13;;;;;;;-144.85;100.00;61331.59;5072366;28;31738;-70
2023/06/01 04:46:24;;;;;;;15.98;9.27;;;;;;;-144.85;100.00;61331.59;5066302;28;31126;-70
2023/06/01 04:48:57;;;;;;;16.02;9.18;;;;;;;-144.85;100.00;61331.59;5081343;28;32770;-70
2023/06/01 04:51:24;;;;;;;17.92;9.38;;;;;;;-144.85;100.00;61331.59;5065505;28;31749;-70
2023/06/01 04:53:53;;;;;;;16.35;9.20;;;;;;;-144.85;100.00;61331.59;5109950;28;32400;-70
2023/06/01 04:56:25;;;;;;;16.80;9.55;;;;;;;-144.85;100.00;61331.59;5101815;28;33040;-71
2023/06/01 04:58:53;;;;;;;16.63;9.00;;;;;;;-144.85;100.00;61331.59;5085722;28;31435;-71
2023/06/01 05:01:29;;;;;;;18.02;9.25;;;;;;;-144.85;100.00;61331.59;5080217;28;30721;-71
2023/06/01 05:03:57;;;;;;;16.45;9.13;;;;;;;-144.85;100.00;61331.59;5080426;28;31764;-71
2023/06/01 05:06:26;;;;;;;17.83;8.93;;;;;;;-144.85;100.00;61331.59;5084683;28;32070;-71
2023/06/01 05:08:53;;;;;;;17.77;9.25;;;;;;;-144.85;100.00;61331.59;5066826;28;31088;-71
2023/06/01 05:11:22;;;;;;;18.30;8.98;;;;;;;-144.85;100.00;61331.59;5097735;28;31517;-69
2023/06/01 05:13:51;;;;;;;13.68;8.55;;;;;;;-144.85;100.00;61331.59;5084833;28;31516;-70
2023/06/01 05:16:18;;;;;;;13.75;8.85;;;;;;;-144.85;100.00;61331.59;5084123;28;31286;-71
2023/06/01 05:18:47;;;;;;;14.80;8.63;;;;;;;-144.85;100.00;61331.59;5066521;28;31490;-71
2023/06/01 05:21:14;;;;;;;15.18;9.10;;;;;;;-144.85;100.00;61331.59;5081287;28;31853;-71
2023/06/01 05:23:41;;;;;;;14.98;8.43;;;;;;;-144.85;100.00;61331.59;5082747;28;30866;-71
2023/06/01 05:26:08;;;;;;;12.63;8.38;;;;;;;-144.85;100.00;61331.59;5081778;28;31184;-71
2023/06/01 05:28:36;;;;;;;16.83;9.27;;;;;;;-144.85;100.00;61331.59;5082618;28;32267;-71
2023/06/01 05:31:07;;;;;;;15.75;8.98;;;;;;;-144.85;100.00;61331.59;5085612;28;31728;-71
2023/06/01 05:33:40;;;;;;;16.27;8.95;;;;;;;-144.85;100.00;61331.59;5085374;28;31687;-71
2023/06/01 05:36:08;;;;;;;15.15;8.60;;;;;;;-144.85;100.00;61331.59;5105083;28;32142;-71
2023/06/01 05:38:35;;;;;;;16.88;8.95;;;;;;;-144.85;100.00;61331.59;5081269;28;31076;-71
2023/06/01 05:41:02;;;;;;;18.65;8.70;;;;;;;-144.85;100.00;61331.59;5063537;28;30641;-72
2023/06/01 05:43:30;;;;;;;14.75;9.18;;;;;;;-144.85;100.00;61331.59;5077137;28;31330;-71
2023/06/01 05:46:01;;;;;;;14.57;8.85;;;;;;;-144.85;100.00;61331.59;5082716;28;32125;-71
2023/06/01 05:48:28;;;;;;;17.80;8.93;;;;;;;-144.85;100.00;61331.59;5079967;28;32608;-72
2023/06/01 05:50:56;;;;;;;18.38;9.75;;;;;;;-144.85;100.00;61331.59;5068026;28;30605;-71
2023/06/01 05:53:24;;;;;;;17.88;9.35;;;;;;;-144.85;100.00;61331.59;5070325;28;31350;-71
2023/06/01 05:55:52;;;;;;;19.58;9.50;;;;;;;-144.85;100.00;61331.59;5055098;28;32535;-71
2023/06/01 05:58:20;;;;;;;16.02;8.75;;;;;;;-144.85;100.00;61331.59;5065860;28;30879;-71
2023/06/01 06:00:47;;;;;;;13.65;7.82;;;;;;;-144.85;100.00;61331.59;5079839;28;30883;-74
2023/06/01 06:03:14;;;;;;;13.20;7.68;;;;;;;-144.85;100.00;61331.59;5097378;28;32373;-75
2023/06/01 06:05:41;;;;;;;14.02;7.95;;;;;;;-144.85;100.00;61331.59;5093372;28;33745;-73
2023/06/01 06:08:10;;;;;;;14.02;8.18;;;;;;;-144.85;100.00;61331.59;5096366;28;31744;-74
2023/06/01 06:10:37;;;;;;;14.77;7.43;;;;;;;-144.85;100.00;61331.59;5097812;28;31299;-74
2023/06/01 06:13:04;;;;;;;12.82;7.22;;;;;;;-144.85;100.00;61331.59;5094918;28;33413;-76
2023/06/01 06:15:32;;;;;;;16.30;7.75;;;;;;;-144.85;100.00;61331.59;5097335;28;32887;-74
2023/06/01 06:17:59;;;;;;;13.00;7.97;;;;;;;-144.85;100.00;61331.59;5099951;28;31774;-74
2023/06/01 06:20:26;;;;;;;14.60;7.57;;;;;;;-144.85;100.00;61331.59;5080664;28;31203;-74
2023/06/01 06:22:53;;;;;;;13.45;7.85;;;;;;;-144.85;100.00;61331.59;5100367;28;32478;-74
2023/06/01 06:25:21;;;;;;;13.38;7.20;;;;;;;-144.85;100.00;61331.59;5098280;28;31937;-74
2023/06/01 06:27:48;;;;;;;16.95;7.47;;;;;;;-144.85;100.00;61331.59;5097706;28;32019;-74
2023/06/01 06:30:15;;;;;;;12.85;7.63;;;;;;;-144.85;100.00;61331.59;5086348;28;31604;-74
2023/06/01 06:32:42;;;;;;;20.67;7.82;;;;;;;-144.85;100.00;61331.59;5104765;28;32791;-74
2023/06/01 06:35:12;;;;;;;15.63;7.43;;;;;;;-144.85;100.00;61331.59;5096955;28;33738;-74
2023/06/01 06:37:41;;;;;;;13.20;7.30;;;;;;;-144.85;100.00;61331.59;5049820;28;31668;-74
2023/06/01 06:40:09;;;;;;;14.57;7.25;;;;;;;-144.85;100.00;61331.59;5098022;28;31229;-74
2023/06/01 06:42:36;;;;;;;13.85;7.40;;;;;;;-144.85;100.00;61331.59;5097177;28;33021;-74
2023/06/01 06:45:04;;;;;;;18.65;7.45;;;;;;;-144.85;100.00;61331.59;5082492;28;31165;-75
2023/06/01 06:47:32;;;;;;;15.40;7.35;;;;;;;-144.85;100.00;61331.59;5097526;28;30852;-74
2023/06/01 06:49:59;;;;;;;14.60;7.53;;;;;;;-144.85;100.00;61331.59;5097094;28;33177;-74
2023/06/01 06:52:26;;;;;;;15.30;7.35;;;;;;;-144.85;100.00;61331.59;5077040;28;31574;-74
2023/06/01 06:54:53;;;;;;;11.95;7.13;;;;;;;-144.85;100.00;61331.59;5095050;28;31974;-74
2023/06/01 06:57:20;;;;;;;12.52;6.95;;;;;;;-144.85;100.00;61331.59;5095701;28;32602;-74
2023/06/01 06:59:47;;;;;;;13.95;7.38;;;;;;;-144.85;100.00;61331.59;5076794;28;32005;-74
2023/06/01 07:02:15;;;;;;;13.88;7.47;;;;;;;-144.85;100.00;61331.59;5107883;28;32243;-74
2023/06/01 07:04:42;;;;;;;14.52;7.60;;;;;;;-144.85;100.00;61331.59;5095983;28;31836;-74
2023/06/01 07:07:09;;;;;;;12.38;6.80;;;;;;;-144.85;100.00;61331.59;5107517;28;31838;-74
2023/06/01 07:09:37;;;;;;;14.52;7.43;;;;;;;-144.85;100.00;61331.59;5082402;28;32874;-75
2023/06/01 07:12:05;;;;;;;12.35;7.22;;;;;;;-144.85;100.00;61331.59;5105355;28;32536;-75
2023/06/01 07:14:33;;;;;;;16.08;7.47;;;;;;;-144.85;100.00;61331.59;5100344;28;32200;-74
2023/06/01 07:17:00;;;;;;;14.48;7.00;;;;;;;-144.85;100.00;61331.59;5097245;28;32558;-74
2023/06/01 07:19:32;;;;;;;16.08;7.55;;;;;;;-144.85;100.00;61331.59;5068570;28;31145;-74
2023/06/01 07:22:00;;;;;;;15.75;7.10;;;;;;;-144.85;100.00;61331.59;5106663;28;32565;-74
2023/06/01 07:24:28;;;;;;;13.02;7.07;;;;;;;-144.85;100.00;61331.59;5097791;28;32653;-74
2023/06/01 07:26:57;;;;;;;14.45;7.65;;;;;;;-144.85;100.00;61331.59;5079843;28;31921;-74
2023/06/01 07:29:24;;;;;;;14.05;7.47;;;;;;;-144.85;100.00;61331.59;5068227;28;31279;-74
2023/06/01 07:31:52;;;;;;;13.32;6.95;;;;;;;-144.85;100.00;61331.59;5082173;28;30913;-74
2023/06/01 07:34:20;;;;;;;13.88;7.47;;;;;;;-144.85;100.00;61331.59;5097248;28;32133;-74
2023/06/01 07:36:48;;;;;;;13.57;7.22;;;;;;;-144.85;100.00;61331.59;5070795;28;31081;-74
2023/06/01 07:39:16;;;;;;;13.90;6.93;;;;;;;-144.85;100.00;61331.59;5091514;28;31609;-75
2023/06/01 07:41:46;;;;;;;11.13;7.10;;;;;;;-144.85;100.00;61331.59;5096494;28;32394;-74
2023/06/01 07:44:18;;;;;;;15.20;7.35;;;;;;;-144.85;100.00;61331.59;5099554;28;32020;-74
2023/06/01 07:46:46;;;;;;;15.77;7.15;;;;;;;-144.85;100.00;61331.59;5083737;28;32898;-74
2023/06/01 07:49:14;;;;;;;12.27;6.80;;;;;;;-144.85;100.00;61331.59;5053840;28;31743;-74
2023/06/01 07:51:42;;;;;;;13.68;7.00;;;;;;;-144.85;100.00;61331.59;5090933;28;32356;-74
2023/06/01 07:54:10;;;;;;;11.93;7.53;;;;;;;-144.85;100.00;61331.59;5095776;28;32772;-74
2023/06/01 07:56:37;;;;;;;12.88;7.22;;;;;;;-144.85;100.00;61331.59;5077950;28;31570;-74
2023/06/01 07:59:04;;;;;;;16.67;7.70;;;;;;;-144.85;100.00;61331.59;5095680;28;32613;-74
2023/06/01 08:01:32;;;;;;;14.73;8.13;;;;;;;-144.85;100.00;61331.59;5064586;28;32857;-74
2023/06/01 08:04:01;;;;;;;13.82;7.32;;;;;;;-144.85;100.00;61331.59;5058486;28;31984;-75
2023/06/01 08:06:35;;;;;;;14.10;7.20;;;;;;;-144.85;100.00;61331.59;5077650;28;31114;-75
2023/06/01 08:09:02;;;;;;;12.82;7.80;;;;;;;-144.85;100.00;61331.59;5086026;28;31262;-74
2023/06/01 08:11:30;;;;;;;13.75;7.47;;;;;;;-144.85;100.00;61331.59;5098734;28;32570;-74
2023/06/01 08:13:59;;;;;;;14.90;7.70;;;;;;;-144.85;100.00;61331.59;5078051;28;32155;-74
2023/06/01 08:16:27;;;;;;;15.32;7.95;;;;;;;-144.85;100.00;61331.59;5078917;28;32372;-74
2023/06/01 08:18:56;;;;;;;16.42;8.00;;;;;;;-144.85;100.00;61331.59;5078119;28;32573;-75
2023/06/01 08:21:25;;;;;;;12.02;7.45;;;;;;;-144.85;100.00;61331.59;5073510;28;32186;-74
2023/06/01 08:23:54;;;;;;;16.67;7.80;;;;;;;-144.85;100.00;61331.59;5096254;28;31872;-75
2023/06/01 08:26:22;;;;;;;11.60;7.60;;;;;;;-144.85;100.00;61331.59;5054673;28;30587;-74
2023/06/01 08:28:52;;;;;;;12.30;7.22;;;;;;;-144.85;100.00;61331.59;5075654;28;31944;-73
2023/06/01 08:31:25;;;;;;;13.15;7.28;;;;;;;-144.85;100.00;61331.59;5095974;28;32010;-74
2023/06/01 08:33:53;;;;;;;15.65;8.02;;;;;;;-144.85;100.00;61331.59;5093482;28;32028;-74
2023/06/01 08:36:20;;;;;;;14.63;7.75;;;;;;;-144.85;100.00;61331.59;5064263;28;31185;-75
2023/06/01 08:38:48;;;;;;;10.98;7.15;;;;;;;-144.85;100.00;61331.59;5068433;28;30569;-74
2023/06/01 08:41:44;;;;;;;14.82;7.90;;;;;;;-144.85;100.00;61331.59;5108518;28;32286;-74
2023/06/01 08:44:14;;;;;;;11.65;7.35;;;;;;;-144.85;100.00;61331.59;5097330;28;31966;-74
2023/06/01 08:46:41;;;;;;;12.07;7.88;;;;;;;-144.85;100.00;61331.59;5080243;28;32724;-75
2023/06/01 08:49:11;;;;;;;12.77;7.30;;;;;;;-144.85;100.00;61331.59;5107736;28;31241;-74
2023/06/01 08:51:41;;;;;;;15.65;8.30;;;;;;;-144.85;100.00;61331.59;5099583;28;32271;-74
2023/06/01 08:54:09;;;;;;;14.07;7.75;;;;;;;-144.85;100.00;61331.59;5055765;28;32405;-74
2023/06/01 08:56:41;;;;;;;14.57;7.63;;;;;;;-144.85;100.00;61331.59;5093438;28;31655;-74
2023/06/01 08:59:11;;;;;;;13.77;9.00;;;;;;;-144.85;100.00;61331.59;5099527;28;31293;-74
2023/06/01 09:01:39;;;;;;;10.88;6.95;;;;;;;-144.85;100.00;61331.59;5081072;28;32417;-74
2023/06/01 09:04:07;;;;;;;14.95;7.60;;;;;;;-144.85;100.00;61331.59;5052993;28;30818;-74
2023/06/01 09:06:36;;;;;;;12.27;7.40;;;;;;;-144.85;100.00;61331.59;5110072;28;31765;-74
2023/06/01 09:09:03;;;;;;;13.40;7.97;;;;;;;-144.85;100.00;61331.59;5099386;28;32304;-74
2023/06/01 09:11:31;;;;;;;15.68;7.85;;;;;;;-144.85;100.00;61331.59;5076671;28;32566;-74
2023/06/01 09:13:58;;;;;;;12.82;7.60;;;;;;;-144.85;100.00;61331.59;5093081;28;32253;-74
2023/06/01 09:16:38;;;;;;;12.48;7.35;;;;;;;-144.85;100.00;61331.59;5083659;28;32227;-75
2023/06/01 09:19:06;;;;;;;14.27;7.90;;;;;;;-144.85;100.00;61331.59;5099186;28;31676;-74
2023/06/01 09:21:33;;;;;;;12.75;7.70;;;;;;;-144.85;100.00;61331.59;5084499;28;32199;-75
2023/06/01 09:24:21;;;;;;;14.63;8.18;;;;;;;-144.85;100.00;61331.59;5083615;28;31101;-74
2023/06/01 09:26:49;;;;;;;11.60;7.55;;;;;;;-144.85;100.00;61331.59;5082582;28;32628;-75
2023/06/01 09:29:17;;;;;;;13.80;8.23;;;;;;;-144.85;100.00;61331.59;5059048;28;30516;-75
2023/06/01 09:31:46;;;;;;;15.50;8.30;;;;;;;-144.85;100.00;61331.59;5097184;28;32011;-75
2023/06/01 09:34:19;;;;;;;15.07;8.43;;;;;;;-144.85;100.00;61331.59;5098667;28;33178;-75
2023/06/01 09:36:48;;;;;;;12.68;7.90;;;;;;;-144.85;100.00;61331.59;5073221;28;33005;-75
2023/06/01 09:39:18;;;;;;;11.57;7.38;;;;;;;-144.85;100.00;61331.59;5097058;28;31711;-75
2023/06/01 09:41:49;;;;;;;16.65;8.07;;;;;;;-144.85;100.00;61331.59;5098869;28;32801;-75
2023/06/01 09:44:30;;;;;;;11.82;7.50;;;;;;;-144.85;100.00;61331.59;5094275;28;32507;-75
2023/06/01 09:47:03;;;;;;;13.13;7.50;;;;;;;-144.85;100.00;61331.59;5098366;28;32862;-75
2023/06/01 09:49:32;;;;;;;12.57;7.35;;;;;;;-144.85;100.00;61331.59;5077528;28;31192;-75
2023/06/01 09:52:06;;;;;;;15.32;8.38;;;;;;;-144.85;100.00;61331.59;5096864;28;32213;-75
2023/06/01 09:54:36;;;;;;;11.70;7.45;;;;;;;-144.85;100.00;61331.59;5097965;28;32982;-75
2023/06/01 09:57:04;;;;;;;13.10;8.05;;;;;;;-144.85;100.00;61331.59;5095312;28;33032;-75
2023/06/01 09:59:42;;;;;;;13.35;7.53;;;;;;;-144.85;100.00;61331.59;5078264;28;31569;-75
2023/06/01 10:02:31;;;;;;;12.60;7.80;;;;;;;-144.85;100.00;61331.59;5084376;28;32213;-75
2023/06/01 10:04:59;;;;;;;10.85;7.40;;;;;;;-144.85;100.00;61331.59;5104654;28;32207;-75
2023/06/01 10:07:30;;;;;;;13.05;7.88;;;;;;;-144.85;100.00;61331.59;5084785;28;30474;-75
2023/06/01 10:10:02;;;;;;;15.48;8.50;;;;;;;-144.85;100.00;61331.59;5095657;28;31509;-75
2023/06/01 10:12:31;;;;;;;15.95;7.70;;;;;;;-144.85;100.00;61331.59;5078690;28;32480;-75
2023/06/01 10:15:02;;;;;;;14.23;7.78;;;;;;;-144.85;100.00;61331.59;5091852;28;32469;-75
2023/06/01 10:17:42;;;;;;;11.35;7.72;;;;;;;-144.85;100.00;61331.59;5100780;27;30586;-75
2023/06/01 10:20:11;;;;;;;15.80;8.07;;;;;;;-144.85;100.00;61331.59;5096651;28;31504;-75
2023/06/01 10:22:41;;;;;;;14.57;8.13;;;;;;;-144.85;100.00;61331.59;5063945;28;32122;-75
2023/06/01 10:25:15;;;;;;;14.00;8.02;;;;;;;-144.85;100.00;61331.59;5078870;28;32860;-75
2023/06/01 10:27:55;;;;;;;12.30;7.85;;;;;;;-144.85;100.00;61331.59;5097330;28;32552;-75
2023/06/01 10:30:22;;;;;;;12.50;7.45;;;;;;;-144.85;100.00;61331.59;5094699;28;31438;-75
2023/06/01 10:32:49;;;;;;;13.13;8.15;;;;;;;-144.85;100.00;61331.59;5097749;28;33459;-75
2023/06/01 10:35:25;;;;;;;11.55;7.78;;;;;;;-144.85;100.00;61331.59;5089845;28;32031;-75
2023/06/01 10:38:13;;;;;;;12.18;8.13;;;;;;;-144.85;100.00;61331.59;5093827;28;31692;-75
2023/06/01 10:40:45;;;;;;;12.27;8.05;;;;;;;-144.85;100.00;61331.59;5095370;28;32317;-75
2023/06/01 10:43:38;;;;;;;11.05;6.57;;;;;;;-144.85;100.00;61331.59;5094893;28;32180;-75
2023/06/01 10:46:35;;;;;;;13.82;7.53;;;;;;;-144.85;100.00;61331.59;5069507;28;31666;-76
2023/06/01 10:49:04;;;;;;;14.98;8.40;;;;;;;-144.85;100.00;61331.59;5069800;28;31772;-75
2023/06/01 10:51:32;;;;;;;12.38;7.70;;;;;;;-144.85;100.00;61331.59;5083447;28;32249;-74
2023/06/01 10:54:32;;;;;;;12.57;7.70;;;;;;;-144.85;100.00;61331.59;5096845;28;32415;-75
2023/06/01 10:57:25;;;;;;;13.40;7.38;;;;;;;-144.85;100.00;61331.59;5021253;28;30868;-75
2023/06/01 11:00:14;;;;;;;13.32;7.40;;;;;;;-144.85;100.00;61331.59;5075561;28;31560;-75
2023/06/01 11:02:49;;;;;;;10.60;7.22;;;;;;;-144.85;100.00;61331.59;5096147;28;32709;-75
2023/06/01 11:05:46;;;;;;;12.45;7.70;;;;;;;-144.85;100.00;61331.59;5093519;28;33289;-75
2023/06/01 11:08:22;;;;;;;12.50;7.20;;;;;;;-144.85;100.00;61331.59;5074554;28;33357;-75
2023/06/01 11:13:31;;;;;;;14.70;7.50;;;;;;;-144.85;100.00;61331.59;5094984;28;32865;-75
2023/06/01 11:16:09;;;;;;;17.27;7.93;;;;;;;-144.85;100.00;61331.59;5099010;28;32284;-74
2023/06/01 11:18:41;;;;;;;11.25;7.32;;;;;;;-144.85;100.00;61331.59;5065140;28;31730;-76